Station Historical Data
Daily Summary for December 6, 2017 Units:  Both    English   Metric
« Previous Day
Next Day »
Daily Weekly Monthly Yearly Custom
  High: Low: Average:
Temperature: 37.0 °F /  2.8 °C 32.0 °F /  0 °C 34.3 °F /  1.3 °C
Dew Point: 31.2 °F /  -0.4 °C 19.7 °F /  -6.8 °C 25.6 °F /  -3.6 °C
Humidity: 88% 58% 71%
Wind Speed: 20.0mph /  32.2km/h - 10.3mph /  16.6km/h
Wind Gust: 34.0mph /  54.7km/h - -
Wind- - WSW
Pressure: 29.92 in /  1013.1 hPa 29.84 in /  1010.4 hPa -
Precipitation: 0.01 in /  0.25 mm    
Historical Graphs
 
 
Tabular Data for December 6, 2017
Time Temperature Dew Point Pressure Wind Wind Speed Wind Gust Humidity Rainfall Rate (Hourly)
00:00 35.6 °F /  2 °C 22.3 °F /  -5.4 °C 29.85in /  1010.7hPa WNW 11.0mph /  17.7km/h 15.0mph /  24.1km/h 58% 0.00in /  0mm
00:05 35.3 °F /  1.8 °C 22.4 °F /  -5.3 °C 29.85in /  1010.7hPa WNW 9.0mph /  14.5km/h 16.0mph /  25.7km/h 59% 0.00in /  0mm
00:10 35.1 °F /  1.7 °C 21.8 °F /  -5.7 °C 29.85in /  1010.7hPa WNW 9.0mph /  14.5km/h 16.0mph /  25.7km/h 58% 0.00in /  0mm
00:15 35.0 °F /  1.7 °C 22.1 °F /  -5.5 °C 29.85in /  1010.7hPa WNW 10.0mph /  16.1km/h 17.0mph /  27.4km/h 59% 0.00in /  0mm
00:20 34.8 °F /  1.6 °C 21.9 °F /  -5.6 °C 29.85in /  1010.7hPa West 9.0mph /  14.5km/h 18.0mph /  29km/h 59% 0.00in /  0mm
00:25 34.6 °F /  1.4 °C 21.7 °F /  -5.7 °C 29.85in /  1010.7hPa WNW 9.0mph /  14.5km/h 18.0mph /  29km/h 59% 0.00in /  0mm
00:30 34.5 °F /  1.4 °C 21.6 °F /  -5.8 °C 29.85in /  1010.7hPa West 9.0mph /  14.5km/h 13.0mph /  20.9km/h 59% 0.00in /  0mm
00:35 34.4 °F /  1.3 °C 21.5 °F /  -5.8 °C 29.85in /  1010.7hPa West 9.0mph /  14.5km/h 16.0mph /  25.7km/h 59% 0.00in /  0mm
00:40 34.3 °F /  1.3 °C 21.8 °F /  -5.7 °C 29.85in /  1010.7hPa WNW 7.0mph /  11.3km/h 15.0mph /  24.1km/h 60% 0.00in /  0mm
00:45 34.3 °F /  1.3 °C 21.8 °F /  -5.7 °C 29.85in /  1010.7hPa West 8.0mph /  12.9km/h 16.0mph /  25.7km/h 60% 0.00in /  0mm
00:50 34.2 °F /  1.2 °C 21.7 °F /  -5.7 °C 29.85in /  1010.7hPa WSW 4.0mph /  6.4km/h 16.0mph /  25.7km/h 60% 0.00in /  0mm
00:55 34.1 °F /  1.2 °C 21.7 °F /  -5.7 °C 29.85in /  1010.7hPa West 15.0mph /  24.1km/h 17.0mph /  27.4km/h 60% 0.00in /  0mm
01:00 34.0 °F /  1.1 °C 22.0 °F /  -5.6 °C 29.85in /  1010.7hPa WSW 3.0mph /  4.8km/h 18.0mph /  29km/h 61% 0.00in /  0mm
01:05 33.9 °F /  1.1 °C 22.2 °F /  -5.4 °C 29.85in /  1010.7hPa West 11.0mph /  17.7km/h 15.0mph /  24.1km/h 62% 0.00in /  0mm
01:10 33.8 °F /  1 °C 21.8 °F /  -5.7 °C 29.85in /  1010.7hPa WNW 6.0mph /  9.7km/h 18.0mph /  29km/h 61% 0.00in /  0mm
01:15 33.8 °F /  1 °C 22.1 °F /  -5.5 °C 29.85in /  1010.7hPa West 8.0mph /  12.9km/h 18.0mph /  29km/h 62% 0.00in /  0mm
01:20 33.8 °F /  1 °C 22.9 °F /  -5.1 °C 29.85in /  1010.7hPa West 6.0mph /  9.7km/h 13.0mph /  20.9km/h 64% 0.00in /  0mm
01:25 33.9 °F /  1.1 °C 23.4 °F /  -4.8 °C 29.86in /  1011.1hPa WSW 6.0mph /  9.7km/h 18.0mph /  29km/h 65% 0.00in /  0mm
01:30 34.5 °F /  1.4 °C 25.7 °F /  -3.5 °C 29.85in /  1010.7hPa WSW 10.0mph /  16.1km/h 24.0mph /  38.6km/h 70% 0.00in /  0mm
01:35 34.9 °F /  1.6 °C 26.1 °F /  -3.3 °C 29.85in /  1010.7hPa WSW 13.0mph /  20.9km/h 27.0mph /  43.5km/h 70% 0.00in /  0mm
01:40 35.0 °F /  1.7 °C 25.1 °F /  -3.8 °C 29.85in /  1010.7hPa WSW 12.0mph /  19.3km/h 27.0mph /  43.5km/h 67% 0.00in /  0mm
01:45 35.2 °F /  1.8 °C 24.6 °F /  -4.1 °C 29.86in /  1011.1hPa WSW 11.0mph /  17.7km/h 21.0mph /  33.8km/h 65% 0.00in /  0mm
01:50 35.5 °F /  1.9 °C 24.5 °F /  -4.2 °C 29.86in /  1011.1hPa WSW 11.0mph /  17.7km/h 22.0mph /  35.4km/h 64% 0.00in /  0mm
01:55 35.6 °F /  2 °C 23.9 °F /  -4.5 °C 29.86in /  1011.1hPa West 13.0mph /  20.9km/h 28.0mph /  45.1km/h 62% 0.00in /  0mm
02:00 35.8 °F /  2.1 °C 24.0 °F /  -4.4 °C 29.86in /  1011.1hPa West 14.0mph /  22.5km/h 28.0mph /  45.1km/h 62% 0.00in /  0mm
02:05 35.7 °F /  2.1 °C 24.3 °F /  -4.3 °C 29.86in /  1011.1hPa West 11.0mph /  17.7km/h 22.0mph /  35.4km/h 63% 0.00in /  0mm
02:10 35.6 °F /  2 °C 24.2 °F /  -4.3 °C 29.86in /  1011.1hPa West 11.0mph /  17.7km/h 21.0mph /  33.8km/h 63% 0.00in /  0mm
02:15 35.5 °F /  1.9 °C 24.1 °F /  -4.4 °C 29.86in /  1011.1hPa West 6.0mph /  9.7km/h 22.0mph /  35.4km/h 63% 0.00in /  0mm
02:20 35.7 °F /  2.1 °C 24.3 °F /  -4.3 °C 29.87in /  1011.4hPa WSW 5.0mph /  8km/h 25.0mph /  40.2km/h 63% 0.00in /  0mm
02:25 35.7 °F /  2.1 °C 23.9 °F /  -4.5 °C 29.87in /  1011.4hPa West 9.0mph /  14.5km/h 26.0mph /  41.8km/h 62% 0.00in /  0mm
02:30 35.7 °F /  2.1 °C 25.1 °F /  -3.8 °C 29.87in /  1011.4hPa WSW 12.0mph /  19.3km/h 26.0mph /  41.8km/h 65% 0.00in /  0mm
02:35 35.4 °F /  1.9 °C 26.9 °F /  -2.8 °C 29.87in /  1011.4hPa WSW 12.0mph /  19.3km/h 28.0mph /  45.1km/h 71% 0.00in /  0mm
02:40 34.9 °F /  1.6 °C 27.5 °F /  -2.5 °C 29.87in /  1011.4hPa SW 13.0mph /  20.9km/h 28.0mph /  45.1km/h 74% 0.00in /  0mm
02:45 34.3 °F /  1.3 °C 27.8 °F /  -2.3 °C 29.88in /  1011.7hPa SW 13.0mph /  20.9km/h 27.0mph /  43.5km/h 77% 0.00in /  0mm
02:50 33.7 °F /  0.9 °C 27.9 °F /  -2.3 °C 29.88in /  1011.7hPa SW 14.0mph /  22.5km/h 27.0mph /  43.5km/h 79% 0.00in /  0mm
02:55 33.2 °F /  0.7 °C 28.0 °F /  -2.2 °C 29.88in /  1011.7hPa SW 18.0mph /  29km/h 24.0mph /  38.6km/h 81% 0.00in /  0mm
03:00 32.6 °F /  0.3 °C 28.0 °F /  -2.2 °C 29.88in /  1011.7hPa WSW 12.0mph /  19.3km/h 32.0mph /  51.5km/h 83% 0.00in /  0mm
03:05 32.3 °F /  0.2 °C 28.0 °F /  -2.2 °C 29.88in /  1011.7hPa WSW 13.0mph /  20.9km/h 32.0mph /  51.5km/h 84% 0.00in /  0mm
03:10 32.1 °F /  0.1 °C 28.1 °F /  -2.2 °C 29.88in /  1011.7hPa WSW 12.0mph /  19.3km/h 27.0mph /  43.5km/h 85% 0.00in /  0mm
03:15 32.1 °F /  0.1 °C 28.4 °F /  -2 °C 29.87in /  1011.4hPa SW 10.0mph /  16.1km/h 14.0mph /  22.5km/h 86% 0.00in /  0mm
03:20 32.2 °F /  0.1 °C 28.5 °F /  -1.9 °C 29.87in /  1011.4hPa WNW 6.0mph /  9.7km/h 17.0mph /  27.4km/h 86% 0.00in /  0mm
03:25 32.3 °F /  0.2 °C 28.3 °F /  -2.1 °C 29.87in /  1011.4hPa West 7.0mph /  11.3km/h 22.0mph /  35.4km/h 85% 0.00in /  0mm
03:30 32.7 °F /  0.4 °C 27.5 °F /  -2.5 °C 29.87in /  1011.4hPa WSW 11.0mph /  17.7km/h 25.0mph /  40.2km/h 81% 0.00in /  0mm
03:35 33.3 °F /  0.7 °C 26.9 °F /  -2.8 °C 29.87in /  1011.4hPa WSW 13.0mph /  20.9km/h 25.0mph /  40.2km/h 77% 0.00in /  0mm
03:45 33.9 °F /  1.1 °C 26.5 °F /  -3.1 °C 29.86in /  1011.1hPa WSW 12.0mph /  19.3km/h 34.0mph /  54.7km/h 74% 0.00in /  0mm
03:50 34.1 °F /  1.2 °C 26.3 °F /  -3.2 °C 29.86in /  1011.1hPa WSW 13.0mph /  20.9km/h 34.0mph /  54.7km/h 73% 0.00in /  0mm
03:55 34.3 °F /  1.3 °C 26.2 °F /  -3.2 °C 29.86in /  1011.1hPa WSW 13.0mph /  20.9km/h 26.0mph /  41.8km/h 72% 0.00in /  0mm
04:00 34.4 °F /  1.3 °C 26.3 °F /  -3.2 °C 29.86in /  1011.1hPa West 13.0mph /  20.9km/h 22.0mph /  35.4km/h 72% 0.00in /  0mm
04:05 34.6 °F /  1.4 °C 25.8 °F /  -3.4 °C 29.86in /  1011.1hPa WSW 15.0mph /  24.1km/h 27.0mph /  43.5km/h 70% 0.00in /  0mm
04:10 34.7 °F /  1.5 °C 25.2 °F /  -3.8 °C 29.86in /  1011.1hPa WSW 14.0mph /  22.5km/h 27.0mph /  43.5km/h 68% 0.00in /  0mm
04:20 34.8 °F /  1.6 °C 24.6 °F /  -4.1 °C 29.86in /  1011.1hPa West 13.0mph /  20.9km/h 28.0mph /  45.1km/h 66% 0.00in /  0mm
04:25 34.8 °F /  1.6 °C 24.2 °F /  -4.3 °C 29.87in /  1011.4hPa WSW 10.0mph /  16.1km/h 22.0mph /  35.4km/h 65% 0.00in /  0mm
04:30 34.8 °F /  1.6 °C 24.2 °F /  -4.3 °C 29.86in /  1011.1hPa West 19.0mph /  30.6km/h 22.0mph /  35.4km/h 65% 0.00in /  0mm
04:35 34.9 °F /  1.6 °C 24.7 °F /  -4.1 °C 29.86in /  1011.1hPa West 13.0mph /  20.9km/h 28.0mph /  45.1km/h 66% 0.00in /  0mm
04:40 34.9 °F /  1.6 °C 24.7 °F /  -4.1 °C 29.87in /  1011.4hPa West 14.0mph /  22.5km/h 24.0mph /  38.6km/h 66% 0.00in /  0mm
04:45 35.0 °F /  1.7 °C 24.8 °F /  -4 °C 29.86in /  1011.1hPa WSW 14.0mph /  22.5km/h 28.0mph /  45.1km/h 66% 0.00in /  0mm
04:50 35.0 °F /  1.7 °C 24.0 °F /  -4.4 °C 29.86in /  1011.1hPa WSW 14.0mph /  22.5km/h 32.0mph /  51.5km/h 64% 0.00in /  0mm
04:55 34.9 °F /  1.6 °C 24.3 °F /  -4.3 °C 29.87in /  1011.4hPa SW 13.0mph /  20.9km/h 22.0mph /  35.4km/h 65% 0.00in /  0mm
05:00 34.8 °F /  1.6 °C 23.5 °F /  -4.7 °C 29.86in /  1011.1hPa WSW 16.0mph /  25.7km/h 31.0mph /  49.9km/h 63% 0.00in /  0mm
05:05 34.8 °F /  1.6 °C 23.5 °F /  -4.7 °C 29.86in /  1011.1hPa West 20.0mph /  32.2km/h 27.0mph /  43.5km/h 63% 0.00in /  0mm
05:10 34.9 °F /  1.6 °C 23.9 °F /  -4.5 °C 29.87in /  1011.4hPa WSW 17.0mph /  27.4km/h 20.0mph /  32.2km/h 64% 0.00in /  0mm
05:15 34.9 °F /  1.6 °C 23.9 °F /  -4.5 °C 29.87in /  1011.4hPa West 13.0mph /  20.9km/h 25.0mph /  40.2km/h 64% 0.00in /  0mm
05:20 34.8 °F /  1.6 °C 23.5 °F /  -4.7 °C 29.86in /  1011.1hPa WSW 12.0mph /  19.3km/h 25.0mph /  40.2km/h 63% 0.00in /  0mm
05:25 35.0 °F /  1.7 °C 23.3 °F /  -4.8 °C 29.87in /  1011.4hPa WSW 13.0mph /  20.9km/h 27.0mph /  43.5km/h 62% 0.00in /  0mm
05:30 35.0 °F /  1.7 °C 23.3 °F /  -4.8 °C 29.87in /  1011.4hPa WSW 13.0mph /  20.9km/h 27.0mph /  43.5km/h 62% 0.00in /  0mm
05:35 35.0 °F /  1.7 °C 23.3 °F /  -4.8 °C 29.87in /  1011.4hPa WSW 11.0mph /  17.7km/h 25.0mph /  40.2km/h 62% 0.00in /  0mm
05:40 35.1 °F /  1.7 °C 23.4 °F /  -4.8 °C 29.87in /  1011.4hPa WSW 12.0mph /  19.3km/h 25.0mph /  40.2km/h 62% 0.00in /  0mm
05:45 35.1 °F /  1.7 °C 23.4 °F /  -4.8 °C 29.87in /  1011.4hPa SW 8.0mph /  12.9km/h 23.0mph /  37km/h 62% 0.00in /  0mm
05:50 35.1 °F /  1.7 °C 23.4 °F /  -4.8 °C 29.87in /  1011.4hPa WSW 11.0mph /  17.7km/h 23.0mph /  37km/h 62% 0.00in /  0mm
05:55 35.2 °F /  1.8 °C 23.5 °F /  -4.7 °C 29.87in /  1011.4hPa West 19.0mph /  30.6km/h 24.0mph /  38.6km/h 62% 0.00in /  0mm
06:00 35.1 °F /  1.7 °C 24.5 °F /  -4.2 °C 29.87in /  1011.4hPa West 7.0mph /  11.3km/h 19.0mph /  30.6km/h 65% 0.00in /  0mm
06:05 34.9 °F /  1.6 °C 24.7 °F /  -4.1 °C 29.87in /  1011.4hPa SW 12.0mph /  19.3km/h 16.0mph /  25.7km/h 66% 0.00in /  0mm
06:10 34.7 °F /  1.5 °C 24.9 °F /  -3.9 °C 29.88in /  1011.7hPa WSW 10.0mph /  16.1km/h 23.0mph /  37km/h 67% 0.00in /  0mm
06:15 34.6 °F /  1.4 °C 24.4 °F /  -4.2 °C 29.88in /  1011.7hPa West 18.0mph /  29km/h 25.0mph /  40.2km/h 66% 0.00in /  0mm
06:20 34.4 °F /  1.3 °C 24.2 °F /  -4.3 °C 29.88in /  1011.7hPa WSW 7.0mph /  11.3km/h 27.0mph /  43.5km/h 66% 0.00in /  0mm
06:25 34.2 °F /  1.2 °C 24.0 °F /  -4.4 °C 29.88in /  1011.7hPa SW 13.0mph /  20.9km/h 27.0mph /  43.5km/h 66% 0.00in /  0mm
06:30 34.0 °F /  1.1 °C 23.5 °F /  -4.7 °C 29.88in /  1011.7hPa SW 13.0mph /  20.9km/h 27.0mph /  43.5km/h 65% 0.00in /  0mm
06:35 33.7 °F /  0.9 °C 23.2 °F /  -4.9 °C 29.88in /  1011.7hPa SW 13.0mph /  20.9km/h 27.0mph /  43.5km/h 65% 0.00in /  0mm
06:40 33.6 °F /  0.9 °C 23.4 °F /  -4.8 °C 29.88in /  1011.7hPa SW 12.0mph /  19.3km/h 28.0mph /  45.1km/h 66% 0.00in /  0mm
06:45 33.5 °F /  0.8 °C 23.4 °F /  -4.8 °C 29.88in /  1011.7hPa SW 11.0mph /  17.7km/h 28.0mph /  45.1km/h 66% 0.00in /  0mm
06:50 33.4 °F /  0.8 °C 22.9 °F /  -5.1 °C 29.88in /  1011.7hPa WSW 10.0mph /  16.1km/h 24.0mph /  38.6km/h 65% 0.00in /  0mm
06:55 33.3 °F /  0.7 °C 22.8 °F /  -5.1 °C 29.88in /  1011.7hPa SSE 7.0mph /  11.3km/h 26.0mph /  41.8km/h 65% 0.00in /  0mm
07:00 33.3 °F /  0.7 °C 23.2 °F /  -4.9 °C 29.89in /  1012.1hPa SW 12.0mph /  19.3km/h 26.0mph /  41.8km/h 66% 0.00in /  0mm
07:05 33.3 °F /  0.7 °C 23.2 °F /  -4.9 °C 29.89in /  1012.1hPa SW 11.0mph /  17.7km/h 23.0mph /  37km/h 66% 0.00in /  0mm
07:10 33.1 °F /  0.6 °C 22.6 °F /  -5.2 °C 29.89in /  1012.1hPa WSW 9.0mph /  14.5km/h 23.0mph /  37km/h 65% 0.00in /  0mm
07:15 33.1 °F /  0.6 °C 22.6 °F /  -5.2 °C 29.88in /  1011.7hPa SW 13.0mph /  20.9km/h 19.0mph /  30.6km/h 65% 0.00in /  0mm
07:20 33.0 °F /  0.6 °C 22.5 °F /  -5.3 °C 29.89in /  1012.1hPa SSW 19.0mph /  30.6km/h 20.0mph /  32.2km/h 65% 0.00in /  0mm
07:25 32.9 °F /  0.5 °C 22.4 °F /  -5.3 °C 29.88in /  1011.7hPa SSW 7.0mph /  11.3km/h 21.0mph /  33.8km/h 65% 0.00in /  0mm
07:30 32.8 °F /  0.4 °C 22.3 °F /  -5.4 °C 29.89in /  1012.1hPa SSW 7.0mph /  11.3km/h 19.0mph /  30.6km/h 65% 0.00in /  0mm
07:35 32.7 °F /  0.4 °C 21.9 °F /  -5.6 °C 29.89in /  1012.1hPa SW 10.0mph /  16.1km/h 22.0mph /  35.4km/h 64% 0.00in /  0mm
07:40 32.6 °F /  0.3 °C 21.8 °F /  -5.7 °C 29.89in /  1012.1hPa SW 11.0mph /  17.7km/h 22.0mph /  35.4km/h 64% 0.00in /  0mm
07:45 32.6 °F /  0.3 °C 22.1 °F /  -5.5 °C 29.89in /  1012.1hPa SW 11.0mph /  17.7km/h 24.0mph /  38.6km/h 65% 0.00in /  0mm
07:50 32.6 °F /  0.3 °C 22.1 °F /  -5.5 °C 29.89in /  1012.1hPa SW 10.0mph /  16.1km/h 24.0mph /  38.6km/h 65% 0.00in /  0mm
07:55 32.5 °F /  0.3 °C 21.7 °F /  -5.7 °C 29.89in /  1012.1hPa WSW 7.0mph /  11.3km/h 18.0mph /  29km/h 64% 0.00in /  0mm
08:00 32.4 °F /  0.2 °C 21.6 °F /  -5.8 °C 29.89in /  1012.1hPa SE 8.0mph /  12.9km/h 18.0mph /  29km/h 64% 0.00in /  0mm
08:05 32.4 °F /  0.2 °C 21.6 °F /  -5.8 °C 29.89in /  1012.1hPa WSW 14.0mph /  22.5km/h 18.0mph /  29km/h 64% 0.00in /  0mm
08:10 32.4 °F /  0.2 °C 21.2 °F /  -6 °C 29.89in /  1012.1hPa SSW 11.0mph /  17.7km/h 26.0mph /  41.8km/h 63% 0.00in /  0mm
08:15 32.2 °F /  0.1 °C 20.6 °F /  -6.3 °C 29.89in /  1012.1hPa WSW 6.0mph /  9.7km/h 24.0mph /  38.6km/h 62% 0.00in /  0mm
08:20 32.2 °F /  0.1 °C 20.6 °F /  -6.3 °C 29.89in /  1012.1hPa SSW 7.0mph /  11.3km/h 19.0mph /  30.6km/h 62% 0.00in /  0mm
08:25 32.1 °F /  0.1 °C 20.2 °F /  -6.6 °C 29.89in /  1012.1hPa SSW 13.0mph /  20.9km/h 24.0mph /  38.6km/h 61% 0.00in /  0mm
08:30 32.1 °F /  0.1 °C 20.2 °F /  -6.6 °C 29.89in /  1012.1hPa West 10.0mph /  16.1km/h 26.0mph /  41.8km/h 61% 0.00in /  0mm
08:35 32.2 °F /  0.1 °C 19.9 °F /  -6.7 °C 29.89in /  1012.1hPa SSE 19.0mph /  30.6km/h 22.0mph /  35.4km/h 60% 0.00in /  0mm
08:40 32.1 °F /  0.1 °C 19.8 °F /  -6.8 °C 29.89in /  1012.1hPa SW 6.0mph /  9.7km/h 19.0mph /  30.6km/h 60% 0.00in /  0mm
08:45 32.1 °F /  0.1 °C 20.2 °F /  -6.6 °C 29.89in /  1012.1hPa SW 8.0mph /  12.9km/h 19.0mph /  30.6km/h 61% 0.00in /  0mm
08:50 32.0 °F /  0 °C 19.7 °F /  -6.8 °C 29.89in /  1012.1hPa SW 9.0mph /  14.5km/h 21.0mph /  33.8km/h 60% 0.00in /  0mm
08:55 32.1 °F /  0.1 °C 20.2 °F /  -6.6 °C 29.89in /  1012.1hPa SW 11.0mph /  17.7km/h 21.0mph /  33.8km/h 61% 0.00in /  0mm
09:00 32.3 °F /  0.2 °C 20.3 °F /  -6.5 °C 29.89in /  1012.1hPa SW 10.0mph /  16.1km/h 22.0mph /  35.4km/h 61% 0.00in /  0mm
09:05 32.3 °F /  0.2 °C 20.0 °F /  -6.7 °C 29.89in /  1012.1hPa SW 11.0mph /  17.7km/h 23.0mph /  37km/h 60% 0.00in /  0mm
09:10 32.4 °F /  0.2 °C 20.4 °F /  -6.4 °C 29.89in /  1012.1hPa SW 10.0mph /  16.1km/h 23.0mph /  37km/h 61% 0.00in /  0mm
09:15 32.4 °F /  0.2 °C 20.0 °F /  -6.7 °C 29.89in /  1012.1hPa SW 14.0mph /  22.5km/h 20.0mph /  32.2km/h 60% 0.00in /  0mm
09:20 32.5 °F /  0.3 °C 20.5 °F /  -6.4 °C 29.89in /  1012.1hPa SSW 7.0mph /  11.3km/h 18.0mph /  29km/h 61% 0.00in /  0mm
09:25 32.5 °F /  0.3 °C 20.5 °F /  -6.4 °C 29.89in /  1012.1hPa SW 7.0mph /  11.3km/h 20.0mph /  32.2km/h 61% 0.00in /  0mm
09:30 32.8 °F /  0.4 °C 21.2 °F /  -6 °C 29.89in /  1012.1hPa SW 5.0mph /  8km/h 20.0mph /  32.2km/h 62% 0.00in /  0mm
09:35 33.0 °F /  0.6 °C 21.8 °F /  -5.7 °C 29.88in /  1011.7hPa SSW 7.0mph /  11.3km/h 27.0mph /  43.5km/h 63% 0.00in /  0mm
09:40 33.2 °F /  0.7 °C 22.0 °F /  -5.6 °C 29.88in /  1011.7hPa SW 18.0mph /  29km/h 22.0mph /  35.4km/h 63% 0.00in /  0mm
09:45 33.3 °F /  0.7 °C 22.4 °F /  -5.3 °C 29.87in /  1011.4hPa SSW 15.0mph /  24.1km/h 28.0mph /  45.1km/h 64% 0.00in /  0mm
09:50 33.4 °F /  0.8 °C 22.5 °F /  -5.3 °C 29.88in /  1011.7hPa SW 12.0mph /  19.3km/h 28.0mph /  45.1km/h 64% 0.00in /  0mm
09:55 33.4 °F /  0.8 °C 22.5 °F /  -5.3 °C 29.88in /  1011.7hPa SW 12.0mph /  19.3km/h 21.0mph /  33.8km/h 64% 0.00in /  0mm
10:00 33.4 °F /  0.8 °C 22.1 °F /  -5.5 °C 29.88in /  1011.7hPa SW 12.0mph /  19.3km/h 26.0mph /  41.8km/h 63% 0.00in /  0mm
10:05 33.5 °F /  0.8 °C 22.6 °F /  -5.2 °C 29.88in /  1011.7hPa SW 11.0mph /  17.7km/h 26.0mph /  41.8km/h 64% 0.00in /  0mm
10:10 33.5 °F /  0.8 °C 22.2 °F /  -5.4 °C 29.88in /  1011.7hPa SW 11.0mph /  17.7km/h 23.0mph /  37km/h 63% 0.00in /  0mm
10:15 33.5 °F /  0.8 °C 22.2 °F /  -5.4 °C 29.88in /  1011.7hPa South 13.0mph /  20.9km/h 20.0mph /  32.2km/h 63% 0.00in /  0mm
10:20 33.6 °F /  0.9 °C 22.3 °F /  -5.4 °C 29.88in /  1011.7hPa SW 14.0mph /  22.5km/h 23.0mph /  37km/h 63% 0.00in /  0mm
10:25 33.8 °F /  1 °C 22.9 °F /  -5.1 °C 29.88in /  1011.7hPa SW 11.0mph /  17.7km/h 23.0mph /  37km/h 64% 0.00in /  0mm
10:30 33.8 °F /  1 °C 22.9 °F /  -5.1 °C 29.88in /  1011.7hPa SW 11.0mph /  17.7km/h 25.0mph /  40.2km/h 64% 0.00in /  0mm
10:35 33.9 °F /  1.1 °C 23.0 °F /  -5 °C 29.88in /  1011.7hPa SW 11.0mph /  17.7km/h 25.0mph /  40.2km/h 64% 0.00in /  0mm
10:40 34.1 °F /  1.2 °C 23.6 °F /  -4.7 °C 29.88in /  1011.7hPa SW 12.0mph /  19.3km/h 25.0mph /  40.2km/h 65% 0.00in /  0mm
10:45 34.2 °F /  1.2 °C 24.0 °F /  -4.4 °C 29.88in /  1011.7hPa SW 18.0mph /  29km/h 25.0mph /  40.2km/h 66% 0.00in /  0mm
10:50 34.2 °F /  1.2 °C 23.7 °F /  -4.6 °C 29.88in /  1011.7hPa SSW 5.0mph /  8km/h 32.0mph /  51.5km/h 65% 0.00in /  0mm
10:55 34.3 °F /  1.3 °C 24.1 °F /  -4.4 °C 29.88in /  1011.7hPa West 5.0mph /  8km/h 29.0mph /  46.7km/h 66% 0.00in /  0mm
11:00 34.5 °F /  1.4 °C 24.3 °F /  -4.3 °C 29.88in /  1011.7hPa SW 13.0mph /  20.9km/h 29.0mph /  46.7km/h 66% 0.00in /  0mm
11:05 34.5 °F /  1.4 °C 24.3 °F /  -4.3 °C 29.88in /  1011.7hPa SW 12.0mph /  19.3km/h 24.0mph /  38.6km/h 66% 0.00in /  0mm
11:10 34.6 °F /  1.4 °C 24.8 °F /  -4 °C 29.87in /  1011.4hPa SW 13.0mph /  20.9km/h 25.0mph /  40.2km/h 67% 0.00in /  0mm
11:15 34.7 °F /  1.5 °C 25.2 °F /  -3.8 °C 29.87in /  1011.4hPa West 16.0mph /  25.7km/h 25.0mph /  40.2km/h 68% 0.00in /  0mm
11:20 34.8 °F /  1.6 °C 25.3 °F /  -3.7 °C 29.86in /  1011.1hPa SW 12.0mph /  19.3km/h 25.0mph /  40.2km/h 68% 0.00in /  0mm
11:25 35.0 °F /  1.7 °C 25.5 °F /  -3.6 °C 29.86in /  1011.1hPa West 18.0mph /  29km/h 25.0mph /  40.2km/h 68% 0.00in /  0mm
11:30 35.2 °F /  1.8 °C 26.0 °F /  -3.3 °C 29.86in /  1011.1hPa SW 6.0mph /  9.7km/h 25.0mph /  40.2km/h 69% 0.00in /  0mm
11:35 35.2 °F /  1.8 °C 26.4 °F /  -3.1 °C 29.86in /  1011.1hPa SW 12.0mph /  19.3km/h 31.0mph /  49.9km/h 70% 0.00in /  0mm
11:40 34.9 °F /  1.6 °C 26.4 °F /  -3.1 °C 29.85in /  1010.7hPa SW 12.0mph /  19.3km/h 31.0mph /  49.9km/h 71% 0.00in /  0mm
11:45 34.8 °F /  1.6 °C 26.4 °F /  -3.1 °C 29.85in /  1010.7hPa SW 13.0mph /  20.9km/h 24.0mph /  38.6km/h 71% 0.00in /  0mm
11:50 35.2 °F /  1.8 °C 26.7 °F /  -2.9 °C 29.85in /  1010.7hPa SSW 20.0mph /  32.2km/h 29.0mph /  46.7km/h 71% 0.00in /  0mm
11:55 35.4 °F /  1.9 °C 26.9 °F /  -2.8 °C 29.85in /  1010.7hPa SW 8.0mph /  12.9km/h 31.0mph /  49.9km/h 71% 0.00in /  0mm
12:00 35.2 °F /  1.8 °C 27.1 °F /  -2.7 °C 29.85in /  1010.7hPa West 13.0mph /  20.9km/h 29.0mph /  46.7km/h 72% 0.00in /  0mm
12:05 35.2 °F /  1.8 °C 27.7 °F /  -2.4 °C 29.85in /  1010.7hPa SSW 12.0mph /  19.3km/h 24.0mph /  38.6km/h 74% 0.00in /  0mm
12:10 35.2 °F /  1.8 °C 27.7 °F /  -2.4 °C 29.84in /  1010.4hPa SW 14.0mph /  22.5km/h 27.0mph /  43.5km/h 74% 0.00in /  0mm
12:15 35.2 °F /  1.8 °C 28.1 °F /  -2.2 °C 29.84in /  1010.4hPa WSW 19.0mph /  30.6km/h 23.0mph /  37km/h 75% 0.00in /  0mm
12:20 35.6 °F /  2 °C 28.5 °F /  -1.9 °C 29.84in /  1010.4hPa SW 12.0mph /  19.3km/h 22.0mph /  35.4km/h 75% 0.00in /  0mm
12:25 36.2 °F /  2.3 °C 27.4 °F /  -2.6 °C 29.84in /  1010.4hPa SSW 8.0mph /  12.9km/h 24.0mph /  38.6km/h 70% 0.00in /  0mm
12:30 36.8 °F /  2.7 °C 26.9 °F /  -2.8 °C 29.84in /  1010.4hPa West 7.0mph /  11.3km/h 21.0mph /  33.8km/h 67% 0.00in /  0mm
12:35 37.0 °F /  2.8 °C 27.1 °F /  -2.7 °C 29.84in /  1010.4hPa SW 11.0mph /  17.7km/h 23.0mph /  37km/h 67% 0.00in /  0mm
12:40 36.7 °F /  2.6 °C 28.2 °F /  -2.1 °C 29.84in /  1010.4hPa WSW 13.0mph /  20.9km/h 20.0mph /  32.2km/h 71% 0.00in /  0mm
12:45 35.9 °F /  2.2 °C 28.4 °F /  -2 °C 29.84in /  1010.4hPa WSW 11.0mph /  17.7km/h 20.0mph /  32.2km/h 74% 0.00in /  0mm
12:50 35.2 °F /  1.8 °C 28.7 °F /  -1.8 °C 29.85in /  1010.7hPa WSW 11.0mph /  17.7km/h 20.0mph /  32.2km/h 77% 0.00in /  0mm
12:55 34.6 °F /  1.4 °C 28.8 °F /  -1.8 °C 29.85in /  1010.7hPa WSW 11.0mph /  17.7km/h 26.0mph /  41.8km/h 79% 0.00in /  0mm
13:00 34.1 °F /  1.2 °C 28.9 °F /  -1.7 °C 29.85in /  1010.7hPa West 11.0mph /  17.7km/h 22.0mph /  35.4km/h 81% 0.00in /  0mm
13:05 33.6 °F /  0.9 °C 29.0 °F /  -1.7 °C 29.84in /  1010.4hPa WSW 14.0mph /  22.5km/h 21.0mph /  33.8km/h 83% 0.00in /  0mm
13:10 33.3 °F /  0.7 °C 29.0 °F /  -1.7 °C 29.84in /  1010.4hPa WSW 11.0mph /  17.7km/h 22.0mph /  35.4km/h 84% 0.00in /  0mm
13:15 33.2 °F /  0.7 °C 29.2 °F /  -1.6 °C 29.84in /  1010.4hPa WSW 14.0mph /  22.5km/h 25.0mph /  40.2km/h 85% 0.00in /  0mm
13:20 33.1 °F /  0.6 °C 29.4 °F /  -1.4 °C 29.84in /  1010.4hPa WSW 13.0mph /  20.9km/h 25.0mph /  40.2km/h 86% 0.00in /  0mm
13:25 33.0 °F /  0.6 °C 29.3 °F /  -1.5 °C 29.84in /  1010.4hPa SW 12.0mph /  19.3km/h 22.0mph /  35.4km/h 86% 0.00in /  0mm
13:30 32.8 °F /  0.4 °C 29.4 °F /  -1.4 °C 29.84in /  1010.4hPa SW 11.0mph /  17.7km/h 20.0mph /  32.2km/h 87% 0.00in /  0mm
13:35 32.9 °F /  0.5 °C 29.5 °F /  -1.4 °C 29.85in /  1010.7hPa WNW 6.0mph /  9.7km/h 23.0mph /  37km/h 87% 0.00in /  0mm
13:40 32.9 °F /  0.5 °C 29.7 °F /  -1.3 °C 29.85in /  1010.7hPa SW 15.0mph /  24.1km/h 18.0mph /  29km/h 88% 0.00in /  0mm
13:45 32.9 °F /  0.5 °C 29.7 °F /  -1.3 °C 29.85in /  1010.7hPa WSW 9.0mph /  14.5km/h 18.0mph /  29km/h 88% 0.00in /  0mm
13:50 32.9 °F /  0.5 °C 29.7 °F /  -1.3 °C 29.85in /  1010.7hPa WSW 9.0mph /  14.5km/h 18.0mph /  29km/h 88% 0.00in /  0mm
13:55 33.0 °F /  0.6 °C 29.8 °F /  -1.2 °C 29.85in /  1010.7hPa WSW 8.0mph /  12.9km/h 17.0mph /  27.4km/h 88% 0.00in /  0mm
14:00 33.0 °F /  0.6 °C 29.8 °F /  -1.2 °C 29.85in /  1010.7hPa WSW 8.0mph /  12.9km/h 17.0mph /  27.4km/h 88% 0.00in /  0mm
14:05 33.1 °F /  0.6 °C 29.9 °F /  -1.2 °C 29.85in /  1010.7hPa WSW 15.0mph /  24.1km/h 30.0mph /  48.3km/h 88% 0.00in /  0mm
14:10 33.1 °F /  0.6 °C 29.9 °F /  -1.2 °C 29.85in /  1010.7hPa SSE 10.0mph /  16.1km/h 25.0mph /  40.2km/h 88% 0.00in /  0mm
14:15 33.2 °F /  0.7 °C 30.0 °F /  -1.1 °C 29.84in /  1010.4hPa WSW 15.0mph /  24.1km/h 22.0mph /  35.4km/h 88% 0.00in /  0mm
14:20 33.3 °F /  0.7 °C 29.8 °F /  -1.2 °C 29.85in /  1010.7hPa SW 11.0mph /  17.7km/h 28.0mph /  45.1km/h 87% 0.00in /  0mm
14:25 33.4 °F /  0.8 °C 29.9 °F /  -1.2 °C 29.85in /  1010.7hPa SW 13.0mph /  20.9km/h 28.0mph /  45.1km/h 87% 0.00in /  0mm
14:30 33.4 °F /  0.8 °C 29.9 °F /  -1.2 °C 29.85in /  1010.7hPa SW 14.0mph /  22.5km/h 24.0mph /  38.6km/h 87% 0.00in /  0mm
14:35 33.2 °F /  0.7 °C 29.8 °F /  -1.2 °C 29.84in /  1010.4hPa SW 12.0mph /  19.3km/h 23.0mph /  37km/h 87% 0.00in /  0mm
14:40 33.2 °F /  0.7 °C 29.8 °F /  -1.2 °C 29.84in /  1010.4hPa SW 10.0mph /  16.1km/h 20.0mph /  32.2km/h 87% 0.00in /  0mm
14:45 33.2 °F /  0.7 °C 29.8 °F /  -1.2 °C 29.84in /  1010.4hPa SW 7.0mph /  11.3km/h 18.0mph /  29km/h 87% 0.00in /  0mm
14:50 33.4 °F /  0.8 °C 29.9 °F /  -1.2 °C 29.84in /  1010.4hPa West 10.0mph /  16.1km/h 20.0mph /  32.2km/h 87% 0.00in /  0mm
14:55 33.8 °F /  1 °C 30.1 °F /  -1.1 °C 29.84in /  1010.4hPa South 6.0mph /  9.7km/h 22.0mph /  35.4km/h 86% 0.00in /  0mm
15:00 34.1 °F /  1.2 °C 30.1 °F /  -1.1 °C 29.84in /  1010.4hPa SW 12.0mph /  19.3km/h 23.0mph /  37km/h 85% 0.00in /  0mm
15:05 34.4 °F /  1.3 °C 30.1 °F /  -1.1 °C 29.84in /  1010.4hPa SSW 14.0mph /  22.5km/h 22.0mph /  35.4km/h 84% 0.00in /  0mm
15:10 34.5 °F /  1.4 °C 29.6 °F /  -1.3 °C 29.85in /  1010.7hPa WSW 12.0mph /  19.3km/h 30.0mph /  48.3km/h 82% 0.00in /  0mm
15:15 34.4 °F /  1.3 °C 29.5 °F /  -1.4 °C 29.85in /  1010.7hPa SW 10.0mph /  16.1km/h 27.0mph /  43.5km/h 82% 0.00in /  0mm
15:20 34.4 °F /  1.3 °C 29.5 °F /  -1.4 °C 29.85in /  1010.7hPa West 14.0mph /  22.5km/h 19.0mph /  30.6km/h 82% 0.00in /  0mm
15:25 34.2 °F /  1.2 °C 29.6 °F /  -1.3 °C 29.85in /  1010.7hPa WSW 13.0mph /  20.9km/h 26.0mph /  41.8km/h 83% 0.00in /  0mm
15:30 33.9 °F /  1.1 °C 29.3 °F /  -1.5 °C 29.85in /  1010.7hPa SW 5.0mph /  8km/h 23.0mph /  37km/h 83% 0.00in /  0mm
15:35 33.8 °F /  1 °C 29.5 °F /  -1.4 °C 29.85in /  1010.7hPa WSW 10.0mph /  16.1km/h 23.0mph /  37km/h 84% 0.00in /  0mm
15:40 33.8 °F /  1 °C 29.5 °F /  -1.4 °C 29.85in /  1010.7hPa WSW 8.0mph /  12.9km/h 15.0mph /  24.1km/h 84% 0.00in /  0mm
15:45 34.0 °F /  1.1 °C 29.7 °F /  -1.3 °C 29.85in /  1010.7hPa SW 10.0mph /  16.1km/h 17.0mph /  27.4km/h 84% 0.00in /  0mm
15:50 34.3 °F /  1.3 °C 30.0 °F /  -1.1 °C 29.85in /  1010.7hPa WSW 10.0mph /  16.1km/h 17.0mph /  27.4km/h 84% 0.00in /  0mm
15:55 34.5 °F /  1.4 °C 29.9 °F /  -1.2 °C 29.85in /  1010.7hPa WSW 10.0mph /  16.1km/h 20.0mph /  32.2km/h 83% 0.00in /  0mm
16:00 34.6 °F /  1.4 °C 30.0 °F /  -1.1 °C 29.84in /  1010.4hPa WSW 8.0mph /  12.9km/h 16.0mph /  25.7km/h 83% 0.00in /  0mm
16:05 34.8 °F /  1.6 °C 30.2 °F /  -1 °C 29.84in /  1010.4hPa WSW 10.0mph /  16.1km/h 24.0mph /  38.6km/h 83% 0.00in /  0mm
16:10 35.1 °F /  1.7 °C 29.9 °F /  -1.2 °C 29.85in /  1010.7hPa SW 12.0mph /  19.3km/h 24.0mph /  38.6km/h 81% 0.00in /  0mm
16:15 35.2 °F /  1.8 °C 30.0 °F /  -1.1 °C 29.84in /  1010.4hPa WSW 6.0mph /  9.7km/h 20.0mph /  32.2km/h 81% 0.00in /  0mm
16:20 35.3 °F /  1.8 °C 30.1 °F /  -1.1 °C 29.84in /  1010.4hPa NW 9.0mph /  14.5km/h 20.0mph /  32.2km/h 81% 0.00in /  0mm
16:25 35.3 °F /  1.8 °C 30.4 °F /  -0.9 °C 29.85in /  1010.7hPa SSE 10.0mph /  16.1km/h 25.0mph /  40.2km/h 82% 0.00in /  0mm
16:30 34.9 °F /  1.6 °C 30.0 °F /  -1.1 °C 29.84in /  1010.4hPa SW 12.0mph /  19.3km/h 20.0mph /  32.2km/h 82% 0.00in /  0mm
16:35 34.6 °F /  1.4 °C 30.0 °F /  -1.1 °C 29.84in /  1010.4hPa SW 9.0mph /  14.5km/h 22.0mph /  35.4km/h 83% 0.00in /  0mm
16:40 34.5 °F /  1.4 °C 30.2 °F /  -1 °C 29.84in /  1010.4hPa SW 11.0mph /  17.7km/h 22.0mph /  35.4km/h 84% 0.00in /  0mm
16:45 34.6 °F /  1.4 °C 30.6 °F /  -0.8 °C 29.84in /  1010.4hPa SW 12.0mph /  19.3km/h 30.0mph /  48.3km/h 85% 0.00in /  0mm
16:50 34.6 °F /  1.4 °C 30.6 °F /  -0.8 °C 29.84in /  1010.4hPa SW 13.0mph /  20.9km/h 30.0mph /  48.3km/h 85% 0.00in /  0mm
16:55 34.5 °F /  1.4 °C 30.5 °F /  -0.8 °C 29.84in /  1010.4hPa SW 12.0mph /  19.3km/h 23.0mph /  37km/h 85% 0.00in /  0mm
17:00 34.4 °F /  1.3 °C 30.4 °F /  -0.9 °C 29.84in /  1010.4hPa SW 10.0mph /  16.1km/h 19.0mph /  30.6km/h 85% 0.00in /  0mm
17:05 34.4 °F /  1.3 °C 30.4 °F /  -0.9 °C 29.84in /  1010.4hPa SW 9.0mph /  14.5km/h 17.0mph /  27.4km/h 85% 0.00in /  0mm
17:10 34.4 °F /  1.3 °C 30.4 °F /  -0.9 °C 29.85in /  1010.7hPa WSW 7.0mph /  11.3km/h 24.0mph /  38.6km/h 85% 0.00in /  0mm
17:15 34.3 °F /  1.3 °C 30.3 °F /  -0.9 °C 29.85in /  1010.7hPa SSW 8.0mph /  12.9km/h 22.0mph /  35.4km/h 85% 0.00in /  0mm
17:20 34.1 °F /  1.2 °C 30.4 °F /  -0.9 °C 29.85in /  1010.7hPa WSW 8.0mph /  12.9km/h 18.0mph /  29km/h 86% 0.00in /  0mm
17:25 34.2 °F /  1.2 °C 30.4 °F /  -0.9 °C 29.86in /  1011.1hPa West 5.0mph /  8km/h 14.0mph /  22.5km/h 86% 0.00in /  0mm
17:30 34.2 °F /  1.2 °C 30.4 °F /  -0.9 °C 29.85in /  1010.7hPa WNW 15.0mph /  24.1km/h 26.0mph /  41.8km/h 86% 0.00in /  0mm
17:35 34.1 °F /  1.2 °C 30.4 °F /  -0.9 °C 29.85in /  1010.7hPa West 4.0mph /  6.4km/h 16.0mph /  25.7km/h 86% 0.00in /  0mm
17:40 34.1 °F /  1.2 °C 30.4 °F /  -0.9 °C 29.84in /  1010.4hPa SW 11.0mph /  17.7km/h 12.0mph /  19.3km/h 86% 0.00in /  0mm
17:45 34.3 °F /  1.3 °C 30.5 °F /  -0.8 °C 29.85in /  1010.7hPa WSW 7.0mph /  11.3km/h 13.0mph /  20.9km/h 86% 0.00in /  0mm
17:50 34.6 °F /  1.4 °C 30.8 °F /  -0.7 °C 29.85in /  1010.7hPa West 8.0mph /  12.9km/h 20.0mph /  32.2km/h 86% 0.00in /  0mm
17:55 34.7 °F /  1.5 °C 30.7 °F /  -0.7 °C 29.84in /  1010.4hPa WSW 8.0mph /  12.9km/h 20.0mph /  32.2km/h 85% 0.00in /  0mm
18:00 34.7 °F /  1.5 °C 30.7 °F /  -0.7 °C 29.85in /  1010.7hPa WSW 9.0mph /  14.5km/h 18.0mph /  29km/h 85% 0.00in /  0mm
18:05 34.8 °F /  1.6 °C 30.8 °F /  -0.7 °C 29.85in /  1010.7hPa WSW 7.0mph /  11.3km/h 18.0mph /  29km/h 85% 0.00in /  0mm
18:10 34.8 °F /  1.6 °C 30.8 °F /  -0.7 °C 29.85in /  1010.7hPa WSW 8.0mph /  12.9km/h 17.0mph /  27.4km/h 85% 0.00in /  0mm
18:15 35.0 °F /  1.7 °C 30.9 °F /  -0.6 °C 29.84in /  1010.4hPa West 7.0mph /  11.3km/h 18.0mph /  29km/h 85% 0.00in /  0mm
18:20 35.3 °F /  1.8 °C 31.2 °F /  -0.4 °C 29.85in /  1010.7hPa WSW 8.0mph /  12.9km/h 18.0mph /  29km/h 85% 0.00in /  0mm
18:25 35.5 °F /  1.9 °C 31.1 °F /  -0.5 °C 29.85in /  1010.7hPa West 5.0mph /  8km/h 9.0mph /  14.5km/h 84% 0.00in /  0mm
18:30 35.6 °F /  2 °C 30.9 °F /  -0.6 °C 29.86in /  1011.1hPa West 5.0mph /  8km/h 11.0mph /  17.7km/h 83% 0.00in /  0mm
18:35 35.5 °F /  1.9 °C 30.5 °F /  -0.8 °C 29.85in /  1010.7hPa West 6.0mph /  9.7km/h 18.0mph /  29km/h 82% 0.00in /  0mm
18:40 35.6 °F /  2 °C 29.7 °F /  -1.3 °C 29.85in /  1010.7hPa WSW 6.0mph /  9.7km/h 18.0mph /  29km/h 79% 0.00in /  0mm
18:45 35.7 °F /  2.1 °C 29.5 °F /  -1.4 °C 29.85in /  1010.7hPa WNW 13.0mph /  20.9km/h 17.0mph /  27.4km/h 78% 0.00in /  0mm
18:50 35.8 °F /  2.1 °C 29.6 °F /  -1.3 °C 29.86in /  1011.1hPa West 12.0mph /  19.3km/h 14.0mph /  22.5km/h 78% 0.00in /  0mm
18:55 35.7 °F /  2.1 °C 29.5 °F /  -1.4 °C 29.86in /  1011.1hPa West 9.0mph /  14.5km/h 16.0mph /  25.7km/h 78% 0.00in /  0mm
19:00 35.6 °F /  2 °C 29.7 °F /  -1.3 °C 29.86in /  1011.1hPa West 8.0mph /  12.9km/h 16.0mph /  25.7km/h 79% 0.00in /  0mm
19:05 35.5 °F /  1.9 °C 29.6 °F /  -1.3 °C 29.87in /  1011.4hPa West 6.0mph /  9.7km/h 15.0mph /  24.1km/h 79% 0.00in /  0mm
19:10 35.4 °F /  1.9 °C 29.5 °F /  -1.4 °C 29.86in /  1011.1hPa West 6.0mph /  9.7km/h 12.0mph /  19.3km/h 79% 0.00in /  0mm
19:15 35.2 °F /  1.8 °C 29.3 °F /  -1.5 °C 29.87in /  1011.4hPa West 6.0mph /  9.7km/h 11.0mph /  17.7km/h 79% 0.00in /  0mm
19:20 35.2 °F /  1.8 °C 29.3 °F /  -1.5 °C 29.87in /  1011.4hPa West 5.0mph /  8km/h 12.0mph /  19.3km/h 79% 0.00in /  0mm
19:25 35.1 °F /  1.7 °C 28.9 °F /  -1.7 °C 29.87in /  1011.4hPa West 6.0mph /  9.7km/h 13.0mph /  20.9km/h 78% 0.00in /  0mm
19:30 35.1 °F /  1.7 °C 28.6 °F /  -1.9 °C 29.87in /  1011.4hPa WNW 8.0mph /  12.9km/h 13.0mph /  20.9km/h 77% 0.00in /  0mm
19:35 35.1 °F /  1.7 °C 28.0 °F /  -2.2 °C 29.87in /  1011.4hPa West 3.0mph /  4.8km/h 15.0mph /  24.1km/h 75% 0.00in /  0mm
19:40 35.0 °F /  1.7 °C 27.9 °F /  -2.3 °C 29.87in /  1011.4hPa West 9.0mph /  14.5km/h 13.0mph /  20.9km/h 75% 0.00in /  0mm
19:45 35.0 °F /  1.7 °C 27.5 °F /  -2.5 °C 29.87in /  1011.4hPa WNW 6.0mph /  9.7km/h 12.0mph /  19.3km/h 74% 0.00in /  0mm
19:50 35.0 °F /  1.7 °C 27.2 °F /  -2.7 °C 29.87in /  1011.4hPa West 2.0mph /  3.2km/h 11.0mph /  17.7km/h 73% 0.00in /  0mm
19:55 35.0 °F /  1.7 °C 27.2 °F /  -2.7 °C 29.87in /  1011.4hPa NW 7.0mph /  11.3km/h 10.0mph /  16.1km/h 73% 0.00in /  0mm
20:00 35.0 °F /  1.7 °C 27.2 °F /  -2.7 °C 29.87in /  1011.4hPa West 6.0mph /  9.7km/h 12.0mph /  19.3km/h 73% 0.00in /  0mm
20:05 35.0 °F /  1.7 °C 26.9 °F /  -2.8 °C 29.88in /  1011.7hPa West 7.0mph /  11.3km/h 15.0mph /  24.1km/h 72% 0.00in /  0mm
20:10 34.9 °F /  1.6 °C 27.5 °F /  -2.5 °C 29.87in /  1011.4hPa West 8.0mph /  12.9km/h 16.0mph /  25.7km/h 74% 0.00in /  0mm
20:15 34.5 °F /  1.4 °C 27.4 °F /  -2.6 °C 29.87in /  1011.4hPa West 7.0mph /  11.3km/h 16.0mph /  25.7km/h 75% 0.00in /  0mm
20:20 34.4 °F /  1.3 °C 27.3 °F /  -2.6 °C 29.88in /  1011.7hPa WSW 7.0mph /  11.3km/h 9.0mph /  14.5km/h 75% 0.00in /  0mm
20:25 34.4 °F /  1.3 °C 27.0 °F /  -2.8 °C 29.88in /  1011.7hPa WSW 6.0mph /  9.7km/h 11.0mph /  17.7km/h 74% 0.00in /  0mm
20:30 34.6 °F /  1.4 °C 27.2 °F /  -2.7 °C 29.88in /  1011.7hPa West 6.0mph /  9.7km/h 10.0mph /  16.1km/h 74% 0.00in /  0mm
20:35 34.6 °F /  1.4 °C 26.8 °F /  -2.9 °C 29.88in /  1011.7hPa WSW 8.0mph /  12.9km/h 15.0mph /  24.1km/h 73% 0.00in /  0mm
20:40 34.8 °F /  1.6 °C 26.7 °F /  -2.9 °C 29.88in /  1011.7hPa West 4.0mph /  6.4km/h 12.0mph /  19.3km/h 72% 0.00in /  0mm
20:45 34.9 °F /  1.6 °C 25.8 °F /  -3.4 °C 29.88in /  1011.7hPa SW 4.0mph /  6.4km/h 16.0mph /  25.7km/h 69% 0.00in /  0mm
20:50 35.0 °F /  1.7 °C 25.5 °F /  -3.6 °C 29.88in /  1011.7hPa WSW 11.0mph /  17.7km/h 16.0mph /  25.7km/h 68% 0.00in /  0mm
20:55 35.0 °F /  1.7 °C 24.8 °F /  -4 °C 29.88in /  1011.7hPa West 10.0mph /  16.1km/h 21.0mph /  33.8km/h 66% 0.00in /  0mm
21:00 35.0 °F /  1.7 °C 24.4 °F /  -4.2 °C 29.88in /  1011.7hPa West 12.0mph /  19.3km/h 16.0mph /  25.7km/h 65% 0.00in /  0mm
21:05 35.0 °F /  1.7 °C 24.4 °F /  -4.2 °C 29.88in /  1011.7hPa West 15.0mph /  24.1km/h 21.0mph /  33.8km/h 65% 0.01in /  0.25mm
21:10 35.0 °F /  1.7 °C 24.4 °F /  -4.2 °C 29.88in /  1011.7hPa West 8.0mph /  12.9km/h 21.0mph /  33.8km/h 65% 0.01in /  0.25mm
21:15 35.0 °F /  1.7 °C 24.0 °F /  -4.4 °C 29.88in /  1011.7hPa West 8.0mph /  12.9km/h 18.0mph /  29km/h 64% 0.01in /  0.25mm
21:20 34.9 °F /  1.6 °C 23.6 °F /  -4.7 °C 29.88in /  1011.7hPa West 10.0mph /  16.1km/h 22.0mph /  35.4km/h 63% 0.01in /  0.25mm
21:25 34.9 °F /  1.6 °C 23.6 °F /  -4.7 °C 29.88in /  1011.7hPa West 10.0mph /  16.1km/h 22.0mph /  35.4km/h 63% 0.01in /  0.25mm
21:30 34.8 °F /  1.6 °C 23.1 °F /  -4.9 °C 29.88in /  1011.7hPa West 8.0mph /  12.9km/h 18.0mph /  29km/h 62% 0.01in /  0.25mm
21:35 34.8 °F /  1.6 °C 22.7 °F /  -5.2 °C 29.89in /  1012.1hPa WNW 5.0mph /  8km/h 18.0mph /  29km/h 61% 0.01in /  0.25mm
21:40 34.7 °F /  1.5 °C 22.6 °F /  -5.2 °C 29.89in /  1012.1hPa West 9.0mph /  14.5km/h 18.0mph /  29km/h 61% 0.01in /  0.25mm
21:45 34.6 °F /  1.4 °C 22.1 °F /  -5.5 °C 29.89in /  1012.1hPa WNW 12.0mph /  19.3km/h 17.0mph /  27.4km/h 60% 0.01in /  0.25mm
21:50 34.7 °F /  1.5 °C 22.2 °F /  -5.4 °C 29.89in /  1012.1hPa West 11.0mph /  17.7km/h 20.0mph /  32.2km/h 60% 0.01in /  0.25mm
21:55 34.6 °F /  1.4 °C 21.7 °F /  -5.7 °C 29.88in /  1011.7hPa WNW 15.0mph /  24.1km/h 17.0mph /  27.4km/h 59% 0.01in /  0.25mm
22:00 34.5 °F /  1.4 °C 22.0 °F /  -5.6 °C 29.89in /  1012.1hPa WSW 10.0mph /  16.1km/h 17.0mph /  27.4km/h 60% 0.01in /  0.25mm
22:05 34.5 °F /  1.4 °C 22.0 °F /  -5.6 °C 29.89in /  1012.1hPa West 11.0mph /  17.7km/h 17.0mph /  27.4km/h 60% 0.00in /  0mm
22:10 34.6 °F /  1.4 °C 22.1 °F /  -5.5 °C 29.90in /  1012.4hPa West 9.0mph /  14.5km/h 20.0mph /  32.2km/h 60% 0.00in /  0mm
22:20 34.8 °F /  1.6 °C 21.9 °F /  -5.6 °C 29.90in /  1012.4hPa West 11.0mph /  17.7km/h 19.0mph /  30.6km/h 59% 0.00in /  0mm
22:25 34.8 °F /  1.6 °C 21.9 °F /  -5.6 °C 29.90in /  1012.4hPa West 10.0mph /  16.1km/h 22.0mph /  35.4km/h 59% 0.00in /  0mm
22:30 34.8 °F /  1.6 °C 21.9 °F /  -5.6 °C 29.90in /  1012.4hPa West 9.0mph /  14.5km/h 22.0mph /  35.4km/h 59% 0.00in /  0mm
22:35 34.7 °F /  1.5 °C 21.8 °F /  -5.7 °C 29.91in /  1012.8hPa West 9.0mph /  14.5km/h 19.0mph /  30.6km/h 59% 0.00in /  0mm
22:40 34.7 °F /  1.5 °C 21.8 °F /  -5.7 °C 29.91in /  1012.8hPa West 13.0mph /  20.9km/h 19.0mph /  30.6km/h 59% 0.00in /  0mm
22:45 34.6 °F /  1.4 °C 22.1 °F /  -5.5 °C 29.91in /  1012.8hPa West 8.0mph /  12.9km/h 19.0mph /  30.6km/h 60% 0.00in /  0mm
22:50 34.6 °F /  1.4 °C 21.7 °F /  -5.7 °C 29.91in /  1012.8hPa West 8.0mph /  12.9km/h 16.0mph /  25.7km/h 59% 0.00in /  0mm
22:55 34.6 °F /  1.4 °C 21.7 °F /  -5.7 °C 29.91in /  1012.8hPa West 9.0mph /  14.5km/h 19.0mph /  30.6km/h 59% 0.00in /  0mm
23:00 34.5 °F /  1.4 °C 22.0 °F /  -5.6 °C 29.91in /  1012.8hPa West 12.0mph /  19.3km/h 16.0mph /  25.7km/h 60% 0.00in /  0mm
23:05 34.5 °F /  1.4 °C 22.0 °F /  -5.6 °C 29.91in /  1012.8hPa WNW 8.0mph /  12.9km/h 18.0mph /  29km/h 60% 0.00in /  0mm
23:10 34.4 °F /  1.3 °C 21.9 °F /  -5.6 °C 29.91in /  1012.8hPa West 8.0mph /  12.9km/h 18.0mph /  29km/h 60% 0.00in /  0mm
23:20 34.2 °F /  1.2 °C 21.7 °F /  -5.7 °C 29.91in /  1012.8hPa West 8.0mph /  12.9km/h 19.0mph /  30.6km/h 60% 0.00in /  0mm
23:25 34.1 °F /  1.2 °C 21.7 °F /  -5.7 °C 29.91in /  1012.8hPa West 9.0mph /  14.5km/h 21.0mph /  33.8km/h 60% 0.00in /  0mm
23:30 33.9 °F /  1.1 °C 21.5 °F /  -5.8 °C 29.91in /  1012.8hPa West 12.0mph /  19.3km/h 17.0mph /  27.4km/h 60% 0.00in /  0mm
23:35 33.8 °F /  1 °C 21.4 °F /  -5.9 °C 29.92in /  1013.1hPa West 9.0mph /  14.5km/h 17.0mph /  27.4km/h 60% 0.00in /  0mm
23:40 33.8 °F /  1 °C 21.4 °F /  -5.9 °C 29.92in /  1013.1hPa West 8.0mph /  12.9km/h 16.0mph /  25.7km/h 60% 0.00in /  0mm
23:45 33.9 °F /  1.1 °C 21.5 °F /  -5.8 °C 29.92in /  1013.1hPa West 8.0mph /  12.9km/h 16.0mph /  25.7km/h 60% 0.00in /  0mm
23:50 33.9 °F /  1.1 °C 21.9 °F /  -5.6 °C 29.91in /  1012.8hPa NW 11.0mph /  17.7km/h 14.0mph /  22.5km/h 61% 0.00in /  0mm
23:55 33.8 °F /  1 °C 21.4 °F /  -5.9 °C 29.91in /  1012.8hPa West 8.0mph /  12.9km/h 14.0mph /  22.5km/h 60% 0.00in /  0mm
Buffalo, New York, USA
Compliments of Weather Underground - 2.5 mb